sensor_id;sensor_type;location;lat;lon;timestamp;P1;durP1;ratioP1;P2;durP2;ratioP2
46455;SDS011;64052;47.466;9.094;2023-02-22T00:01:22;9.18;;;5.57;;
46455;SDS011;64052;47.466;9.094;2023-02-22T00:06:23;6.05;;;5.10;;
46455;SDS011;64052;47.466;9.094;2023-02-22T00:11:25;7.03;;;5.47;;
46455;SDS011;64052;47.466;9.094;2023-02-22T00:16:27;8.00;;;5.53;;
46455;SDS011;64052;47.466;9.094;2023-02-22T00:21:28;6.97;;;5.50;;
46455;SDS011;64052;47.466;9.094;2023-02-22T00:26:31;7.93;;;5.47;;
46455;SDS011;64052;47.466;9.094;2023-02-22T00:31:36;7.38;;;4.60;;
46455;SDS011;64052;47.466;9.094;2023-02-22T00:36:38;4.75;;;4.20;;
46455;SDS011;64052;47.466;9.094;2023-02-22T00:41:46;5.55;;;4.78;;
46455;SDS011;64052;47.466;9.094;2023-02-22T00:46:47;7.78;;;4.18;;
46455;SDS011;64052;47.466;9.094;2023-02-22T00:51:49;7.93;;;4.97;;
46455;SDS011;64052;47.466;9.094;2023-02-22T00:56:51;7.25;;;4.72;;
46455;SDS011;64052;47.466;9.094;2023-02-22T01:01:52;4.47;;;4.07;;
46455;SDS011;64052;47.466;9.094;2023-02-22T01:06:54;5.13;;;3.53;;
46455;SDS011;64052;47.466;9.094;2023-02-22T01:12:00;7.13;;;4.85;;
46455;SDS011;64052;47.466;9.094;2023-02-22T01:17:02;4.57;;;4.13;;
46455;SDS011;64052;47.466;9.094;2023-02-22T01:22:04;4.90;;;3.65;;
46455;SDS011;64052;47.466;9.094;2023-02-22T01:27:05;6.60;;;5.35;;
46455;SDS011;64052;47.466;9.094;2023-02-22T01:32:07;8.57;;;5.00;;
46455;SDS011;64052;47.466;9.094;2023-02-22T01:37:09;5.30;;;3.95;;
46455;SDS011;64052;47.466;9.094;2023-02-22T01:42:11;8.18;;;4.47;;
46455;SDS011;64052;47.466;9.094;2023-02-22T01:47:12;4.65;;;4.00;;
46455;SDS011;64052;47.466;9.094;2023-02-22T01:52:15;6.90;;;3.63;;
46455;SDS011;64052;47.466;9.094;2023-02-22T01:57:22;7.43;;;4.20;;
46455;SDS011;64052;47.466;9.094;2023-02-22T02:02:33;6.95;;;3.90;;
46455;SDS011;64052;47.466;9.094;2023-02-22T02:07:35;7.28;;;4.70;;
46455;SDS011;64052;47.466;9.094;2023-02-22T02:12:39;7.47;;;5.68;;
46455;SDS011;64052;47.466;9.094;2023-02-22T02:17:44;8.45;;;4.85;;
46455;SDS011;64052;47.466;9.094;2023-02-22T02:28:23;4.00;;;3.70;;
46455;SDS011;64052;47.466;9.094;2023-02-22T02:44:00;4.93;;;3.10;;
46455;SDS011;64052;47.466;9.094;2023-02-22T02:49:06;5.60;;;3.25;;
46455;SDS011;64052;47.466;9.094;2023-02-22T02:54:12;5.82;;;3.97;;
46455;SDS011;64052;47.466;9.094;2023-02-22T02:59:49;3.92;;;3.17;;
46455;SDS011;64052;47.466;9.094;2023-02-22T03:16:11;3.92;;;3.33;;
46455;SDS011;64052;47.466;9.094;2023-02-22T03:20:57;3.78;;;3.33;;
46455;SDS011;64052;47.466;9.094;2023-02-22T03:26:08;5.30;;;3.63;;
46455;SDS011;64052;47.466;9.094;2023-02-22T03:31:19;3.72;;;2.83;;
46455;SDS011;64052;47.466;9.094;2023-02-22T03:36:31;5.20;;;3.78;;
46455;SDS011;64052;47.466;9.094;2023-02-22T03:46:39;5.07;;;3.28;;
46455;SDS011;64052;47.466;9.094;2023-02-22T03:51:43;6.07;;;3.17;;
46455;SDS011;64052;47.466;9.094;2023-02-22T03:56:52;5.45;;;3.65;;
46455;SDS011;64052;47.466;9.094;2023-02-22T04:01:57;3.35;;;3.05;;
46455;SDS011;64052;47.466;9.094;2023-02-22T04:06:59;4.03;;;3.47;;
46455;SDS011;64052;47.466;9.094;2023-02-22T04:12:02;4.45;;;3.55;;
46455;SDS011;64052;47.466;9.094;2023-02-22T04:17:10;3.47;;;3.10;;
46455;SDS011;64052;47.466;9.094;2023-02-22T04:22:12;4.43;;;3.08;;
46455;SDS011;64052;47.466;9.094;2023-02-22T04:27:14;5.30;;;3.42;;
46455;SDS011;64052;47.466;9.094;2023-02-22T04:32:16;3.65;;;2.63;;
46455;SDS011;64052;47.466;9.094;2023-02-22T04:37:18;3.65;;;2.90;;
46455;SDS011;64052;47.466;9.094;2023-02-22T04:42:19;4.97;;;2.90;;
46455;SDS011;64052;47.466;9.094;2023-02-22T04:47:21;3.97;;;3.40;;
46455;SDS011;64052;47.466;9.094;2023-02-22T04:52:22;5.60;;;2.80;;
46455;SDS011;64052;47.466;9.094;2023-02-22T04:57:24;2.90;;;2.63;;
46455;SDS011;64052;47.466;9.094;2023-02-22T05:02:26;4.93;;;3.42;;
46455;SDS011;64052;47.466;9.094;2023-02-22T05:07:28;6.07;;;3.13;;
46455;SDS011;64052;47.466;9.094;2023-02-22T05:12:29;3.63;;;3.33;;
46455;SDS011;64052;47.466;9.094;2023-02-22T05:17:31;3.13;;;2.72;;
46455;SDS011;64052;47.466;9.094;2023-02-22T05:22:33;4.78;;;2.72;;
46455;SDS011;64052;47.466;9.094;2023-02-22T05:27:34;5.57;;;3.63;;
46455;SDS011;64052;47.466;9.094;2023-02-22T05:32:36;5.50;;;3.15;;
46455;SDS011;64052;47.466;9.094;2023-02-22T05:37:40;3.20;;;2.85;;
46455;SDS011;64052;47.466;9.094;2023-02-22T05:42:41;2.67;;;2.47;;
46455;SDS011;64052;47.466;9.094;2023-02-22T05:47:43;3.88;;;3.22;;
46455;SDS011;64052;47.466;9.094;2023-02-22T05:52:45;5.20;;;3.90;;
46455;SDS011;64052;47.466;9.094;2023-02-22T05:57:47;4.80;;;3.67;;
46455;SDS011;64052;47.466;9.094;2023-02-22T06:07:56;4.25;;;3.50;;
46455;SDS011;64052;47.466;9.094;2023-02-22T06:12:58;4.07;;;3.67;;
46455;SDS011;64052;47.466;9.094;2023-02-22T06:18:01;4.85;;;3.88;;
46455;SDS011;64052;47.466;9.094;2023-02-22T06:23:03;4.75;;;4.35;;
46455;SDS011;64052;47.466;9.094;2023-02-22T06:28:04;3.97;;;3.38;;
46455;SDS011;64052;47.466;9.094;2023-02-22T06:33:06;6.43;;;3.55;;
46455;SDS011;64052;47.466;9.094;2023-02-22T06:38:08;4.57;;;3.60;;
46455;SDS011;64052;47.466;9.094;2023-02-22T06:43:09;55.20;;;32.55;;
46455;SDS011;64052;47.466;9.094;2023-02-22T06:48:11;58.70;;;32.22;;
46455;SDS011;64052;47.466;9.094;2023-02-22T06:53:13;29.40;;;15.13;;
46455;SDS011;64052;47.466;9.094;2023-02-22T06:58:14;12.18;;;8.65;;
46455;SDS011;64052;47.466;9.094;2023-02-22T07:03:16;8.85;;;5.75;;
46455;SDS011;64052;47.466;9.094;2023-02-22T07:08:17;17.38;;;10.77;;
46455;SDS011;64052;47.466;9.094;2023-02-22T07:13:19;6.63;;;4.82;;
46455;SDS011;64052;47.466;9.094;2023-02-22T07:18:20;8.80;;;7.55;;
46455;SDS011;64052;47.466;9.094;2023-02-22T07:23:22;13.18;;;7.82;;
46455;SDS011;64052;47.466;9.094;2023-02-22T07:28:23;7.60;;;6.40;;
46455;SDS011;64052;47.466;9.094;2023-02-22T07:33:25;6.90;;;4.75;;
46455;SDS011;64052;47.466;9.094;2023-02-22T07:38:26;10.32;;;5.53;;
46455;SDS011;64052;47.466;9.094;2023-02-22T07:43:28;9.05;;;4.35;;
46455;SDS011;64052;47.466;9.094;2023-02-22T07:48:32;6.50;;;4.75;;
46455;SDS011;64052;47.466;9.094;2023-02-22T07:53:34;6.43;;;3.95;;
46455;SDS011;64052;47.466;9.094;2023-02-22T07:58:35;8.15;;;6.40;;
46455;SDS011;64052;47.466;9.094;2023-02-22T08:03:37;7.45;;;5.50;;
46455;SDS011;64052;47.466;9.094;2023-02-22T08:08:38;10.20;;;5.38;;
46455;SDS011;64052;47.466;9.094;2023-02-22T08:13:40;6.07;;;4.53;;
46455;SDS011;64052;47.466;9.094;2023-02-22T08:18:41;9.15;;;5.03;;
46455;SDS011;64052;47.466;9.094;2023-02-22T08:23:43;9.38;;;5.68;;
46455;SDS011;64052;47.466;9.094;2023-02-22T08:28:45;8.50;;;5.50;;
46455;SDS011;64052;47.466;9.094;2023-02-22T08:33:47;7.25;;;5.53;;
46455;SDS011;64052;47.466;9.094;2023-02-22T08:38:49;8.70;;;6.32;;
46455;SDS011;64052;47.466;9.094;2023-02-22T08:43:51;10.85;;;6.70;;
46455;SDS011;64052;47.466;9.094;2023-02-22T08:48:52;7.88;;;5.18;;
46455;SDS011;64052;47.466;9.094;2023-02-22T08:53:54;8.45;;;5.03;;
46455;SDS011;64052;47.466;9.094;2023-02-22T08:58:55;11.90;;;6.28;;
46455;SDS011;64052;47.466;9.094;2023-02-22T09:03:57;11.82;;;5.82;;
46455;SDS011;64052;47.466;9.094;2023-02-22T09:08:58;10.38;;;6.18;;
46455;SDS011;64052;47.466;9.094;2023-02-22T09:14:00;7.60;;;6.07;;
46455;SDS011;64052;47.466;9.094;2023-02-22T09:19:02;5.68;;;4.72;;
46455;SDS011;64052;47.466;9.094;2023-02-22T09:24:04;7.32;;;5.00;;
46455;SDS011;64052;47.466;9.094;2023-02-22T09:29:06;7.25;;;5.22;;
46455;SDS011;64052;47.466;9.094;2023-02-22T09:34:08;6.72;;;4.75;;
46455;SDS011;64052;47.466;9.094;2023-02-22T09:39:10;7.05;;;4.90;;
46455;SDS011;64052;47.466;9.094;2023-02-22T09:44:15;6.07;;;4.53;;
46455;SDS011;64052;47.466;9.094;2023-02-22T09:59:39;7.93;;;6.20;;
46455;SDS011;64052;47.466;9.094;2023-02-22T10:05:07;10.00;;;5.77;;
46455;SDS011;64052;47.466;9.094;2023-02-22T10:10:17;7.85;;;4.93;;
46455;SDS011;64052;47.466;9.094;2023-02-22T10:15:33;7.57;;;5.90;;
46455;SDS011;64052;47.466;9.094;2023-02-22T10:20:47;9.30;;;5.35;;
46455;SDS011;64052;47.466;9.094;2023-02-22T10:25:54;6.63;;;5.28;;
46455;SDS011;64052;47.466;9.094;2023-02-22T10:31:03;7.47;;;5.88;;
46455;SDS011;64052;47.466;9.094;2023-02-22T10:36:13;7.25;;;5.22;;
46455;SDS011;64052;47.466;9.094;2023-02-22T10:41:26;10.63;;;5.78;;
46455;SDS011;64052;47.466;9.094;2023-02-22T10:46:30;9.95;;;6.07;;
46455;SDS011;64052;47.466;9.094;2023-02-22T10:51:33;7.43;;;5.70;;
46455;SDS011;64052;47.466;9.094;2023-02-22T10:56:36;9.57;;;6.25;;
46455;SDS011;64052;47.466;9.094;2023-02-22T11:01:50;10.63;;;7.22;;
46455;SDS011;64052;47.466;9.094;2023-02-22T11:17:31;14.95;;;11.15;;
46455;SDS011;64052;47.466;9.094;2023-02-22T11:22:38;15.52;;;11.32;;
46455;SDS011;64052;47.466;9.094;2023-02-22T11:27:42;17.50;;;11.82;;
46455;SDS011;64052;47.466;9.094;2023-02-22T11:32:49;15.50;;;10.38;;
46455;SDS011;64052;47.466;9.094;2023-02-22T11:43:19;12.23;;;9.05;;
46455;SDS011;64052;47.466;9.094;2023-02-22T11:48:21;10.82;;;8.70;;
46455;SDS011;64052;47.466;9.094;2023-02-22T11:53:28;12.38;;;9.18;;
46455;SDS011;64052;47.466;9.094;2023-02-22T11:58:49;10.43;;;8.73;;
46455;SDS011;64052;47.466;9.094;2023-02-22T12:14:43;12.32;;;9.05;;
46455;SDS011;64052;47.466;9.094;2023-02-22T12:19:45;10.35;;;9.13;;
46455;SDS011;64052;47.466;9.094;2023-02-22T12:25:33;11.38;;;9.65;;
46455;SDS011;64052;47.466;9.094;2023-02-22T12:30:25;11.75;;;9.13;;
46455;SDS011;64052;47.466;9.094;2023-02-22T12:35:31;12.82;;;9.25;;
46455;SDS011;64052;47.466;9.094;2023-02-22T12:45:59;12.57;;;9.07;;
46455;SDS011;64052;47.466;9.094;2023-02-22T12:51:52;14.10;;;11.02;;
46455;SDS011;64052;47.466;9.094;2023-02-22T12:56:54;13.35;;;11.05;;
46455;SDS011;64052;47.466;9.094;2023-02-22T13:02:02;14.77;;;12.20;;
46455;SDS011;64052;47.466;9.094;2023-02-22T13:17:31;15.63;;;9.50;;
46455;SDS011;64052;47.466;9.094;2023-02-22T13:55:15;10.23;;;9.20;;
46455;SDS011;64052;47.466;9.094;2023-02-22T14:00:22;10.10;;;8.52;;
46455;SDS011;64052;47.466;9.094;2023-02-22T14:10:53;13.50;;;10.50;;
46455;SDS011;64052;47.466;9.094;2023-02-22T14:26:30;10.90;;;9.80;;
46455;SDS011;64052;47.466;9.094;2023-02-22T14:37:03;13.95;;;10.63;;
46455;SDS011;64052;47.466;9.094;2023-02-22T14:47:41;11.75;;;9.48;;
46455;SDS011;64052;47.466;9.094;2023-02-22T14:52:58;11.68;;;10.07;;
46455;SDS011;64052;47.466;9.094;2023-02-22T14:58:10;12.23;;;9.57;;
46455;SDS011;64052;47.466;9.094;2023-02-22T15:08:30;11.27;;;8.48;;
46455;SDS011;64052;47.466;9.094;2023-02-22T15:13:31;11.23;;;8.23;;
46455;SDS011;64052;47.466;9.094;2023-02-22T15:18:39;8.52;;;6.80;;
46455;SDS011;64052;47.466;9.094;2023-02-22T15:23:44;10.55;;;8.65;;
46455;SDS011;64052;47.466;9.094;2023-02-22T15:28:57;9.30;;;8.30;;
46455;SDS011;64052;47.466;9.094;2023-02-22T15:39:24;9.70;;;7.68;;
46455;SDS011;64052;47.466;9.094;2023-02-22T15:44:38;10.05;;;7.80;;
46455;SDS011;64052;47.466;9.094;2023-02-22T15:49:41;11.10;;;8.77;;
46455;SDS011;64052;47.466;9.094;2023-02-22T15:54:43;11.20;;;8.63;;
46455;SDS011;64052;47.466;9.094;2023-02-22T15:59:48;13.65;;;9.30;;
46455;SDS011;64052;47.466;9.094;2023-02-22T16:04:59;11.07;;;8.65;;
46455;SDS011;64052;47.466;9.094;2023-02-22T16:10:13;11.73;;;9.43;;
46455;SDS011;64052;47.466;9.094;2023-02-22T16:15:21;10.18;;;9.15;;
46455;SDS011;64052;47.466;9.094;2023-02-22T16:25:25;14.63;;;10.27;;
46455;SDS011;64052;47.466;9.094;2023-02-22T16:30:34;12.17;;;10.10;;
46455;SDS011;64052;47.466;9.094;2023-02-22T16:35:38;15.68;;;10.73;;
46455;SDS011;64052;47.466;9.094;2023-02-22T16:40:40;15.18;;;9.55;;
46455;SDS011;64052;47.466;9.094;2023-02-22T16:45:47;17.40;;;9.68;;
46455;SDS011;64052;47.466;9.094;2023-02-22T16:50:49;13.48;;;9.75;;
46455;SDS011;64052;47.466;9.094;2023-02-22T16:55:53;14.73;;;9.98;;
46455;SDS011;64052;47.466;9.094;2023-02-22T17:00:59;12.20;;;9.15;;
46455;SDS011;64052;47.466;9.094;2023-02-22T17:06:01;12.98;;;9.30;;
46455;SDS011;64052;47.466;9.094;2023-02-22T17:11:02;13.50;;;9.85;;
46455;SDS011;64052;47.466;9.094;2023-02-22T17:16:05;13.65;;;9.52;;
46455;SDS011;64052;47.466;9.094;2023-02-22T17:21:08;14.57;;;11.43;;
46455;SDS011;64052;47.466;9.094;2023-02-22T17:26:11;14.85;;;10.40;;
46455;SDS011;64052;47.466;9.094;2023-02-22T17:31:20;12.48;;;9.55;;
46455;SDS011;64052;47.466;9.094;2023-02-22T17:36:24;13.80;;;9.55;;
46455;SDS011;64052;47.466;9.094;2023-02-22T17:41:25;13.75;;;9.95;;
46455;SDS011;64052;47.466;9.094;2023-02-22T17:46:26;15.88;;;10.52;;
46455;SDS011;64052;47.466;9.094;2023-02-22T17:51:28;12.30;;;9.80;;
46455;SDS011;64052;47.466;9.094;2023-02-22T17:56:30;11.95;;;9.50;;
46455;SDS011;64052;47.466;9.094;2023-02-22T18:01:31;16.92;;;9.95;;
46455;SDS011;64052;47.466;9.094;2023-02-22T18:06:33;16.63;;;9.95;;
46455;SDS011;64052;47.466;9.094;2023-02-22T18:11:35;15.23;;;11.02;;
46455;SDS011;64052;47.466;9.094;2023-02-22T18:16:38;16.90;;;11.60;;
46455;SDS011;64052;47.466;9.094;2023-02-22T18:21:40;13.05;;;10.52;;
46455;SDS011;64052;47.466;9.094;2023-02-22T18:26:41;25.65;;;17.35;;
46455;SDS011;64052;47.466;9.094;2023-02-22T18:31:43;21.80;;;14.50;;
46455;SDS011;64052;47.466;9.094;2023-02-22T18:36:44;16.73;;;12.32;;
46455;SDS011;64052;47.466;9.094;2023-02-22T18:41:46;15.90;;;11.23;;
46455;SDS011;64052;47.466;9.094;2023-02-22T18:46:47;18.10;;;11.38;;
46455;SDS011;64052;47.466;9.094;2023-02-22T18:51:49;18.55;;;11.63;;
46455;SDS011;64052;47.466;9.094;2023-02-22T18:56:50;17.80;;;11.95;;
46455;SDS011;64052;47.466;9.094;2023-02-22T19:01:52;16.30;;;12.00;;
46455;SDS011;64052;47.466;9.094;2023-02-22T19:06:53;14.82;;;10.98;;
46455;SDS011;64052;47.466;9.094;2023-02-22T19:11:55;20.27;;;12.32;;
46455;SDS011;64052;47.466;9.094;2023-02-22T19:16:57;14.50;;;10.32;;
46455;SDS011;64052;47.466;9.094;2023-02-22T19:21:58;17.05;;;12.13;;
46455;SDS011;64052;47.466;9.094;2023-02-22T19:26:59;18.05;;;12.48;;
46455;SDS011;64052;47.466;9.094;2023-02-22T19:32:01;17.35;;;11.98;;
46455;SDS011;64052;47.466;9.094;2023-02-22T19:37:03;14.07;;;10.95;;
46455;SDS011;64052;47.466;9.094;2023-02-22T19:42:06;16.95;;;12.02;;
46455;SDS011;64052;47.466;9.094;2023-02-22T19:47:07;18.50;;;13.32;;
46455;SDS011;64052;47.466;9.094;2023-02-22T19:52:09;17.38;;;11.90;;
46455;SDS011;64052;47.466;9.094;2023-02-22T19:57:11;21.20;;;13.95;;
46455;SDS011;64052;47.466;9.094;2023-02-22T20:02:12;19.15;;;14.10;;
46455;SDS011;64052;47.466;9.094;2023-02-22T20:07:13;17.13;;;12.43;;
46455;SDS011;64052;47.466;9.094;2023-02-22T20:12:15;13.18;;;11.77;;
46455;SDS011;64052;47.466;9.094;2023-02-22T20:17:17;19.45;;;14.00;;
46455;SDS011;64052;47.466;9.094;2023-02-22T20:22:19;20.20;;;14.88;;
46455;SDS011;64052;47.466;9.094;2023-02-22T20:27:21;18.98;;;13.15;;
46455;SDS011;64052;47.466;9.094;2023-02-22T20:32:22;19.90;;;14.75;;
46455;SDS011;64052;47.466;9.094;2023-02-22T20:48:40;19.60;;;13.40;;
46455;SDS011;64052;47.466;9.094;2023-02-22T20:53:41;27.05;;;14.77;;
46455;SDS011;64052;47.466;9.094;2023-02-22T20:58:43;19.13;;;13.52;;
46455;SDS011;64052;47.466;9.094;2023-02-22T21:03:45;20.48;;;14.13;;
46455;SDS011;64052;47.466;9.094;2023-02-22T21:08:51;17.08;;;13.32;;
46455;SDS011;64052;47.466;9.094;2023-02-22T21:13:55;16.88;;;12.68;;
46455;SDS011;64052;47.466;9.094;2023-02-22T21:18:57;21.67;;;14.55;;
46455;SDS011;64052;47.466;9.094;2023-02-22T21:24:01;19.63;;;14.70;;
46455;SDS011;64052;47.466;9.094;2023-02-22T21:29:04;20.73;;;12.40;;
46455;SDS011;64052;47.466;9.094;2023-02-22T21:34:06;20.73;;;13.77;;
46455;SDS011;64052;47.466;9.094;2023-02-22T21:39:12;18.50;;;13.55;;
46455;SDS011;64052;47.466;9.094;2023-02-22T21:44:15;19.40;;;12.38;;
46455;SDS011;64052;47.466;9.094;2023-02-22T21:49:17;20.08;;;14.38;;
46455;SDS011;64052;47.466;9.094;2023-02-22T21:54:19;20.17;;;14.68;;
46455;SDS011;64052;47.466;9.094;2023-02-22T21:59:21;17.52;;;14.23;;
46455;SDS011;64052;47.466;9.094;2023-02-22T22:04:26;18.55;;;13.30;;
46455;SDS011;64052;47.466;9.094;2023-02-22T22:09:29;17.38;;;13.32;;
46455;SDS011;64052;47.466;9.094;2023-02-22T22:14:31;19.17;;;12.70;;
46455;SDS011;64052;47.466;9.094;2023-02-22T22:19:34;17.95;;;14.60;;
46455;SDS011;64052;47.466;9.094;2023-02-22T22:24:37;19.63;;;13.32;;
46455;SDS011;64052;47.466;9.094;2023-02-22T22:29:39;19.58;;;14.52;;
46455;SDS011;64052;47.466;9.094;2023-02-22T22:34:40;20.33;;;13.90;;
46455;SDS011;64052;47.466;9.094;2023-02-22T22:39:42;19.02;;;14.35;;
46455;SDS011;64052;47.466;9.094;2023-02-22T22:44:43;22.75;;;15.70;;
46455;SDS011;64052;47.466;9.094;2023-02-22T22:49:45;24.88;;;13.93;;
46455;SDS011;64052;47.466;9.094;2023-02-22T22:54:47;20.30;;;13.13;;
46455;SDS011;64052;47.466;9.094;2023-02-22T22:59:48;18.38;;;12.63;;
46455;SDS011;64052;47.466;9.094;2023-02-22T23:04:50;16.27;;;12.98;;
46455;SDS011;64052;47.466;9.094;2023-02-22T23:09:51;17.75;;;12.18;;
46455;SDS011;64052;47.466;9.094;2023-02-22T23:14:53;21.33;;;12.50;;
46455;SDS011;64052;47.466;9.094;2023-02-22T23:19:55;17.63;;;11.95;;
46455;SDS011;64052;47.466;9.094;2023-02-22T23:24:57;16.85;;;11.98;;
46455;SDS011;64052;47.466;9.094;2023-02-22T23:29:58;17.70;;;12.27;;
46455;SDS011;64052;47.466;9.094;2023-02-22T23:35:00;19.63;;;12.27;;
46455;SDS011;64052;47.466;9.094;2023-02-22T23:40:02;19.50;;;12.30;;
46455;SDS011;64052;47.466;9.094;2023-02-22T23:45:03;19.85;;;13.02;;
46455;SDS011;64052;47.466;9.094;2023-02-22T23:50:05;15.27;;;11.55;;
46455;SDS011;64052;47.466;9.094;2023-02-22T23:55:07;14.48;;;10.75;;
